Time;durP1;ratioP1;P1;durP2;ratioP2;P2;SDS_P1;SDS_P2;PMS_P1;PMS_P2;Temp;Humidity;BMP_temperature;BMP_pressure;BME280_temperature;BME280_humidity;BME280_pressure;Samples;Min_cycle;Max_cycle;Signal;HPM_P1;HPM_P2
2021/09/26 00:00:43;;;;;;;15.68;8.55;;;;;;;;;;10443706;28;20232;-75
2021/09/26 00:05:47;;;;;;;18.33;9.07;;;;;;;;;;10443847;28;20049;-75
2021/09/26 00:10:50;;;;;;;15.48;8.50;;;;;;;;;;10444190;28;20116;-74
2021/09/26 00:15:53;;;;;;;17.88;10.00;;;;;;;;;;10437731;28;20041;-72
2021/09/26 00:20:57;;;;;;;19.73;9.82;;;;;;;;;;10450449;28;20485;-75
2021/09/26 00:26:00;;;;;;;17.35;9.45;;;;;;;;;;10447576;28;20190;-74
2021/09/26 00:31:03;;;;;;;18.40;10.02;;;;;;;;;;10446871;28;20052;-75
2021/09/26 00:36:07;;;;;;;12.70;7.18;;;;;;;;;;10439222;28;20060;-73
2021/09/26 00:41:10;;;;;;;11.05;4.75;;;;;;;;;;10444603;28;20033;-74
2021/09/26 00:46:13;;;;;;;11.60;6.30;;;;;;;;;;10441586;28;20041;-73
2021/09/26 00:51:20;;;;;;;10.68;6.38;;;;;;;;;;10439258;28;20043;-74
2021/09/26 00:56:24;;;;;;;13.15;7.00;;;;;;;;;;10444558;28;20099;-74
2021/09/26 01:01:27;;;;;;;9.75;5.57;;;;;;;;;;10442718;28;20119;-73
2021/09/26 01:06:37;;;;;;;10.73;5.13;;;;;;;;;;10442449;28;20060;-73
2021/09/26 01:11:48;;;;;;;11.18;5.13;;;;;;;;;;10439857;28;20377;-73
2021/09/26 01:17:09;;;;;;;8.10;4.35;;;;;;;;;;10452933;28;20156;-74
2021/09/26 01:22:21;;;;;;;7.10;4.47;;;;;;;;;;10453455;28;20416;-72
2021/09/26 01:27:56;;;;;;;8.95;4.45;;;;;;;;;;10435536;28;20059;-74
2021/09/26 01:33:02;;;;;;;9.23;4.90;;;;;;;;;;10438863;28;20064;-74
2021/09/26 01:38:08;;;;;;;6.15;4.15;;;;;;;;;;10436976;28;20049;-75
2021/09/26 01:43:13;;;;;;;8.48;4.57;;;;;;;;;;10440379;28;20041;-72
2021/09/26 01:48:19;;;;;;;8.10;4.22;;;;;;;;;;10439062;28;20096;-75
2021/09/26 01:53:23;;;;;;;10.38;4.47;;;;;;;;;;10437465;28;20075;-74
2021/09/26 01:58:26;;;;;;;7.88;4.68;;;;;;;;;;10440861;28;20040;-74
2021/09/26 02:03:30;;;;;;;5.38;3.28;;;;;;;;;;10437779;28;20094;-74
2021/09/26 02:08:34;;;;;;;9.48;4.43;;;;;;;;;;10439340;28;20037;-74
2021/09/26 02:13:37;;;;;;;10.90;4.57;;;;;;;;;;10434685;28;20116;-74
2021/09/26 02:18:43;;;;;;;6.97;3.72;;;;;;;;;;10440736;28;20049;-74
2021/09/26 02:23:46;;;;;;;6.78;4.03;;;;;;;;;;10462443;28;20689;-74
2021/09/26 02:28:48;;;;;;;6.60;4.17;;;;;;;;;;10464162;28;20081;-72
2021/09/26 02:33:53;;;;;;;6.80;3.67;;;;;;;;;;10465544;28;20654;-76
2021/09/26 02:38:56;;;;;;;6.60;3.70;;;;;;;;;;10445500;28;20040;-76
2021/09/26 02:44:01;;;;;;;8.52;4.45;;;;;;;;;;10440681;28;20082;-75
2021/09/26 02:49:07;;;;;;;9.07;4.25;;;;;;;;;;10436888;28;20135;-75
2021/09/26 02:54:10;;;;;;;10.73;4.70;;;;;;;;;;10439390;28;20064;-76
2021/09/26 02:59:13;;;;;;;8.15;4.15;;;;;;;;;;10452368;28;20045;-76
2021/09/26 03:04:17;;;;;;;9.05;4.47;;;;;;;;;;10433755;28;20037;-75
2021/09/26 03:09:20;;;;;;;8.43;4.28;;;;;;;;;;10441258;28;20083;-74
2021/09/26 03:14:23;;;;;;;7.93;4.60;;;;;;;;;;10443958;28;20041;-73
2021/09/26 03:19:27;;;;;;;10.23;4.50;;;;;;;;;;10448596;28;20323;-74
2021/09/26 03:24:30;;;;;;;7.28;4.28;;;;;;;;;;10443220;28;20352;-73
2021/09/26 03:29:34;;;;;;;8.67;5.03;;;;;;;;;;10446834;28;20040;-75
2021/09/26 03:34:38;;;;;;;7.45;4.10;;;;;;;;;;10447882;28;20335;-76
2021/09/26 03:39:41;;;;;;;8.65;4.60;;;;;;;;;;10446188;28;20045;-74
2021/09/26 03:44:44;;;;;;;7.40;4.27;;;;;;;;;;10446083;28;20528;-73
2021/09/26 03:49:48;;;;;;;7.07;3.83;;;;;;;;;;10443122;28;20371;-75
2021/09/26 03:54:51;;;;;;;6.72;4.00;;;;;;;;;;10445657;28;20041;-75
2021/09/26 03:59:54;;;;;;;8.60;4.30;;;;;;;;;;10441551;28;20548;-74
2021/09/26 04:04:58;;;;;;;8.53;4.80;;;;;;;;;;10444339;28;20373;-75
2021/09/26 04:10:01;;;;;;;8.27;4.32;;;;;;;;;;10445085;28;20208;-73
2021/09/26 04:15:05;;;;;;;9.02;4.35;;;;;;;;;;10431700;28;20562;-74
2021/09/26 04:20:08;;;;;;;;;;;;;;;;;;10446679;28;20103;-74
2021/09/26 04:25:12;;;;;;;10.03;4.60;;;;;;;;;;10440255;28;19921;-74
2021/09/26 04:30:16;;;;;;;8.98;3.97;;;;;;;;;;10444210;28;20132;-74
2021/09/26 04:35:19;;;;;;;9.27;4.18;;;;;;;;;;10440742;28;20087;-72
2021/09/26 04:40:23;;;;;;;7.25;3.60;;;;;;;;;;10455290;28;20041;-75
2021/09/26 04:45:26;;;;;;;8.32;4.13;;;;;;;;;;10444115;28;20068;-74
2021/09/26 04:50:29;;;;;;;7.18;3.88;;;;;;;;;;10444400;28;20041;-74
2021/09/26 04:55:34;;;;;;;7.97;3.92;;;;;;;;;;10439733;28;20052;-73
2021/09/26 05:00:37;;;;;;;11.73;3.80;;;;;;;;;;10444060;28;20079;-74
2021/09/26 05:05:40;;;;;;;8.60;3.38;;;;;;;;;;10447699;28;20037;-74
2021/09/26 05:10:44;;;;;;;8.10;4.13;;;;;;;;;;10444091;28;20045;-74
2021/09/26 05:15:47;;;;;;;4.40;2.50;;;;;;;;;;10429773;28;20323;-73
2021/09/26 05:20:52;;;;;;;8.03;3.80;;;;;;;;;;10432510;28;20114;-75
2021/09/26 05:25:57;;;;;;;6.50;3.42;;;;;;;;;;10433281;28;20708;-74
2021/09/26 05:31:00;;;;;;;5.30;3.00;;;;;;;;;;10436248;28;20041;-74
2021/09/26 05:36:03;;;;;;;7.40;3.45;;;;;;;;;;10441369;28;20037;-74
2021/09/26 05:41:07;;;;;;;8.10;4.05;;;;;;;;;;10434860;28;20053;-74
2021/09/26 05:46:12;;;;;;;6.93;3.53;;;;;;;;;;10439818;28;20037;-74
2021/09/26 05:51:15;;;;;;;9.82;4.00;;;;;;;;;;10439193;28;20548;-75
2021/09/26 05:56:19;;;;;;;9.07;3.70;;;;;;;;;;10442138;28;20160;-72
2021/09/26 06:01:22;;;;;;;6.63;3.42;;;;;;;;;;10441338;28;20090;-72
2021/09/26 06:06:25;;;;;;;6.50;3.30;;;;;;;;;;10441760;28;20041;-72
2021/09/26 06:11:30;;;;;;;8.98;3.70;;;;;;;;;;10440391;28;20041;-73
2021/09/26 06:16:32;;;;;;;7.90;3.45;;;;;;;;;;10436525;28;20497;-72
2021/09/26 06:21:35;;;;;;;8.93;3.22;;;;;;;;;;10440605;28;20060;-72
2021/09/26 06:26:40;;;;;;;6.32;2.78;;;;;;;;;;10439496;28;20095;-72
2021/09/26 06:31:42;;;;;;;9.55;3.25;;;;;;;;;;10450716;28;20550;-73
2021/09/26 06:36:45;;;;;;;8.38;3.55;;;;;;;;;;10436787;28;20115;-73
2021/09/26 06:41:52;;;;;;;6.18;3.53;;;;;;;;;;10440795;28;20570;-72
2021/09/26 06:46:55;;;;;;;12.85;5.38;;;;;;;;;;10442372;28;20083;-72
2021/09/26 06:51:58;;;;;;;7.18;3.40;;;;;;;;;;10440397;28;20095;-73
2021/09/26 06:57:02;;;;;;;7.45;3.20;;;;;;;;;;10440917;28;20709;-72
2021/09/26 07:02:05;;;;;;;11.88;3.75;;;;;;;;;;10446132;28;20087;-74
2021/09/26 07:07:09;;;;;;;8.63;3.75;;;;;;;;;;10445692;28;20049;-73
2021/09/26 07:12:13;;;;;;;4.55;2.13;;;;;;;;;;10446711;28;20497;-72
2021/09/26 07:17:18;;;;;;;4.57;2.53;;;;;;;;;;10442872;28;20040;-73
2021/09/26 07:22:23;;;;;;;4.95;2.75;;;;;;;;;;10443995;28;20412;-71
2021/09/26 07:27:27;;;;;;;5.00;2.75;;;;;;;;;;10463632;28;20485;-73
2021/09/26 07:32:30;;;;;;;9.90;3.20;;;;;;;;;;10454645;28;20048;-73
2021/09/26 07:37:33;;;;;;;5.00;2.65;;;;;;;;;;10455805;28;20059;-73
2021/09/26 07:42:37;;;;;;;4.43;2.75;;;;;;;;;;10444148;28;20057;-73
2021/09/26 07:47:40;;;;;;;9.13;4.55;;;;;;;;;;10440405;28;20493;-73
2021/09/26 07:52:43;;;;;;;5.32;2.03;;;;;;;;;;10444250;28;20045;-72
2021/09/26 07:57:47;;;;;;;4.95;2.80;;;;;;;;;;10448075;28;20432;-73
2021/09/26 08:02:50;;;;;;;6.95;2.85;;;;;;;;;;10439568;28;20076;-73
2021/09/26 08:07:53;;;;;;;5.28;2.70;;;;;;;;;;10443408;28;20041;-73
2021/09/26 08:12:57;;;;;;;9.95;2.95;;;;;;;;;;10447691;28;20069;-71
2021/09/26 08:18:00;;;;;;;7.85;2.65;;;;;;;;;;10440662;28;20045;-71
2021/09/26 08:23:03;;;;;;;6.47;3.10;;;;;;;;;;10466247;28;20049;-70
2021/09/26 08:28:07;;;;;;;7.60;2.75;;;;;;;;;;10448368;28;20099;-71
2021/09/26 08:33:10;;;;;;;8.63;2.83;;;;;;;;;;10445648;28;20127;-71
2021/09/26 08:38:12;;;;;;;5.45;2.50;;;;;;;;;;10443662;28;20099;-71
2021/09/26 08:43:17;;;;;;;6.72;2.33;;;;;;;;;;10448720;28;20059;-72
2021/09/26 08:48:21;;;;;;;11.07;3.10;;;;;;;;;;10445630;28;20053;-70
2021/09/26 08:53:25;;;;;;;7.65;2.63;;;;;;;;;;10444315;28;20033;-73
2021/09/26 08:58:29;;;;;;;4.43;2.90;;;;;;;;;;10446108;28;20106;-72
2021/09/26 09:03:32;;;;;;;6.53;2.80;;;;;;;;;;10460937;28;20072;-72
2021/09/26 09:08:39;;;;;;;5.28;2.90;;;;;;;;;;10441936;28;20040;-71
2021/09/26 09:13:45;;;;;;;4.63;2.60;;;;;;;;;;10447063;28;20047;-71
2021/09/26 09:18:50;;;;;;;4.97;2.38;;;;;;;;;;10452509;28;20040;-72
2021/09/26 09:23:54;;;;;;;6.18;2.65;;;;;;;;;;10444624;28;20048;-72
2021/09/26 09:28:59;;;;;;;4.18;2.63;;;;;;;;;;10446760;28;20053;-70
2021/09/26 09:34:04;;;;;;;6.95;2.53;;;;;;;;;;10448885;28;20128;-72
2021/09/26 09:39:08;;;;;;;7.65;2.90;;;;;;;;;;10449322;28;20631;-72
2021/09/26 09:44:14;;;;;;;9.60;2.40;;;;;;;;;;10443624;28;20045;-71
2021/09/26 09:49:18;;;;;;;5.75;2.60;;;;;;;;;;10435830;28;20048;-71
2021/09/26 09:54:28;;;;;;;6.25;2.63;;;;;;;;;;10450498;28;20099;-72
2021/09/26 09:59:33;;;;;;;5.97;2.35;;;;;;;;;;10469121;28;20481;-73
2021/09/26 10:04:38;;;;;;;5.70;2.28;;;;;;;;;;10453381;28;20151;-71
2021/09/26 10:09:41;;;;;;;6.55;2.58;;;;;;;;;;10456973;28;20053;-74
2021/09/26 10:14:46;;;;;;;9.07;2.40;;;;;;;;;;10461687;28;20049;-73
2021/09/26 10:19:49;;;;;;;7.45;2.63;;;;;;;;;;10440660;28;20132;-74
2021/09/26 10:24:52;;;;;;;8.27;2.40;;;;;;;;;;10439763;28;20037;-72
2021/09/26 10:29:59;;;;;;;7.93;3.05;;;;;;;;;;10440325;28;20639;-73
2021/09/26 10:35:02;;;;;;;4.55;2.50;;;;;;;;;;10439959;28;20041;-74
2021/09/26 10:40:06;;;;;;;6.25;2.70;;;;;;;;;;10440833;28;20203;-72
2021/09/26 10:45:10;;;;;;;7.72;2.83;;;;;;;;;;10442262;28;20463;-74
2021/09/26 10:50:15;;;;;;;5.43;2.30;;;;;;;;;;10439490;28;20059;-74
2021/09/26 10:55:30;;;;;;;6.80;2.35;;;;;;;;;;10448760;28;20075;-74
2021/09/26 11:00:36;;;;;;;8.73;2.90;;;;;;;;;;10457083;28;20056;-74
2021/09/26 11:05:41;;;;;;;7.03;2.78;;;;;;;;;;10461961;28;20037;-74
2021/09/26 11:10:51;;;;;;;7.72;2.80;;;;;;;;;;10449336;28;20040;-72
2021/09/26 11:16:12;;;;;;;10.75;3.53;;;;;;;;;;10449170;28;20059;-73
2021/09/26 11:21:34;;;;;;;8.25;3.00;;;;;;;;;;10462758;28;20052;-71
2021/09/26 11:26:51;;;;;;;11.57;2.80;;;;;;;;;;10452111;28;20112;-72
2021/09/26 11:31:56;;;;;;;8.23;3.00;;;;;;;;;;10453441;28;20123;-73
2021/09/26 11:36:59;;;;;;;9.68;3.30;;;;;;;;;;10465675;28;20037;-72
2021/09/26 11:42:02;;;;;;;10.13;2.90;;;;;;;;;;10459152;28;20040;-71
2021/09/26 11:47:13;;;;;;;6.55;3.08;;;;;;;;;;10459745;28;20131;-72
2021/09/26 11:52:16;;;;;;;4.90;2.42;;;;;;;;;;10447418;28;20502;-72
2021/09/26 11:57:22;;;;;;;9.02;2.83;;;;;;;;;;10451823;28;20071;-72
2021/09/26 12:02:26;;;;;;;8.80;3.20;;;;;;;;;;10448738;28;20047;-71
2021/09/26 12:07:30;;;;;;;7.70;2.60;;;;;;;;;;10443063;28;20040;-73
2021/09/26 12:12:32;;;;;;;7.00;2.63;;;;;;;;;;10439718;28;20505;-71
2021/09/26 12:17:37;;;;;;;8.63;3.30;;;;;;;;;;10445544;28;20033;-72
2021/09/26 12:22:41;;;;;;;6.82;2.97;;;;;;;;;;10446318;28;20044;-72
2021/09/26 12:27:49;;;;;;;8.80;2.80;;;;;;;;;;10453619;28;20048;-73
2021/09/26 12:32:54;;;;;;;8.73;3.20;;;;;;;;;;10452978;28;20094;-73
2021/09/26 12:37:58;;;;;;;11.68;3.22;;;;;;;;;;10449852;28;20067;-73
2021/09/26 12:43:03;;;;;;;8.18;4.35;;;;;;;;;;10447604;28;20072;-73
2021/09/26 12:48:07;;;;;;;8.90;3.58;;;;;;;;;;10451071;28;20112;-74
2021/09/26 12:53:12;;;;;;;8.00;3.75;;;;;;;;;;10445355;28;20504;-73
2021/09/26 12:58:32;;;;;;;7.82;3.13;;;;;;;;;;10444695;28;20117;-72
2021/09/26 13:03:35;;;;;;;7.82;3.20;;;;;;;;;;10442837;28;20493;-73
2021/09/26 13:08:39;;;;;;;11.00;4.00;;;;;;;;;;10440260;28;20044;-73
2021/09/26 13:14:00;;;;;;;9.18;3.30;;;;;;;;;;10451652;28;20068;-71
2021/09/26 13:19:18;;;;;;;10.02;4.40;;;;;;;;;;10441230;28;20041;-75
2021/09/26 13:24:26;;;;;;;8.63;3.30;;;;;;;;;;10439384;28;20539;-71
2021/09/26 13:29:32;;;;;;;6.88;3.55;;;;;;;;;;10438397;28;20045;-74
2021/09/26 13:34:36;;;;;;;9.82;4.07;;;;;;;;;;10434477;28;20102;-72
2021/09/26 13:39:41;;;;;;;7.18;3.70;;;;;;;;;;10440218;28;21550;-73
2021/09/26 13:44:46;;;;;;;8.73;3.20;;;;;;;;;;10436853;28;20780;-71
2021/09/26 13:49:49;;;;;;;19.80;8.00;;;;;;;;;;10445353;28;20076;-72
2021/09/26 13:54:53;;;;;;;18.50;7.43;;;;;;;;;;10442336;28;21190;-73
2021/09/26 14:00:00;;;;;;;9.70;4.03;;;;;;;;;;10441562;28;20040;-72
2021/09/26 14:05:03;;;;;;;11.20;3.75;;;;;;;;;;10454261;28;20036;-72
2021/09/26 14:10:07;;;;;;;11.15;4.10;;;;;;;;;;10435495;28;20099;-72
2021/09/26 14:15:12;;;;;;;15.27;3.67;;;;;;;;;;10442760;28;20106;-71
2021/09/26 14:20:15;;;;;;;7.18;4.18;;;;;;;;;;10439653;28;20045;-70
2021/09/26 14:25:17;;;;;;;9.63;3.90;;;;;;;;;;10439337;28;21320;-70
2021/09/26 14:30:22;;;;;;;8.45;3.90;;;;;;;;;;10438179;28;20128;-71
2021/09/26 14:35:25;;;;;;;10.98;3.50;;;;;;;;;;10440653;28;20470;-70
2021/09/26 14:40:28;;;;;;;13.45;4.90;;;;;;;;;;10436107;28;20064;-71
2021/09/26 14:45:33;;;;;;;9.65;4.65;;;;;;;;;;10431213;28;20485;-71
2021/09/26 14:50:36;;;;;;;11.80;5.45;;;;;;;;;;10432754;28;20132;-71
2021/09/26 14:55:40;;;;;;;8.38;5.50;;;;;;;;;;10434613;28;20095;-70
2021/09/26 15:00:44;;;;;;;10.43;5.80;;;;;;;;;;10439143;28;20091;-69
2021/09/26 15:05:47;;;;;;;15.38;6.50;;;;;;;;;;10433453;28;20072;-72
2021/09/26 15:10:50;;;;;;;8.75;5.38;;;;;;;;;;10445045;28;20044;-72
2021/09/26 15:15:54;;;;;;;13.95;6.57;;;;;;;;;;10445860;28;20041;-72
2021/09/26 15:20:57;;;;;;;15.20;6.82;;;;;;;;;;10445410;28;20084;-72
2021/09/26 15:26:00;;;;;;;15.57;7.25;;;;;;;;;;10441264;28;20033;-71
2021/09/26 15:31:04;;;;;;;13.52;6.95;;;;;;;;;;10449792;28;20067;-72
2021/09/26 15:36:07;;;;;;;11.90;6.43;;;;;;;;;;10451358;28;20477;-70
2021/09/26 15:41:09;;;;;;;14.52;8.38;;;;;;;;;;10450727;28;20079;-72
2021/09/26 15:46:14;;;;;;;12.05;6.75;;;;;;;;;;10449610;28;20036;-70
2021/09/26 15:51:18;;;;;;;15.10;7.05;;;;;;;;;;10446159;28;20045;-71
2021/09/26 15:56:20;;;;;;;14.52;7.80;;;;;;;;;;10449428;28;20041;-71
2021/09/26 16:01:24;;;;;;;11.25;6.75;;;;;;;;;;10450443;28;20405;-71
2021/09/26 16:06:27;;;;;;;12.90;6.95;;;;;;;;;;10445850;28;20092;-73
2021/09/26 16:11:30;;;;;;;15.93;7.10;;;;;;;;;;10449268;28;20055;-72
2021/09/26 16:16:35;;;;;;;13.88;6.72;;;;;;;;;;10469726;28;20037;-71
2021/09/26 16:21:37;;;;;;;13.85;6.75;;;;;;;;;;10465843;28;20043;-72
2021/09/26 16:26:40;;;;;;;;;;;;;;;;;;10473312;28;20033;-71
2021/09/26 16:31:44;;;;;;;13.03;6.67;;;;;;;;;;10453543;28;19921;-70
2021/09/26 16:36:51;;;;;;;13.40;7.25;;;;;;;;;;10450076;28;20071;-72
2021/09/26 16:41:54;;;;;;;12.88;6.60;;;;;;;;;;10447462;28;20047;-71
2021/09/26 16:46:56;;;;;;;;;;;;;;;;;;10462942;28;20144;-72
2021/09/26 16:52:01;;;;;;;12.50;6.47;;;;;;;;;;10438490;28;20023;-73
2021/09/26 16:57:04;;;;;;;8.80;5.43;;;;;;;;;;10434017;28;20052;-73
2021/09/26 17:02:07;;;;;;;11.77;6.15;;;;;;;;;;10442310;28;20041;-72
2021/09/26 17:07:11;;;;;;;11.43;5.95;;;;;;;;;;10437500;28;20076;-74
2021/09/26 17:12:15;;;;;;;13.15;5.95;;;;;;;;;;10437521;28;20049;-72
2021/09/26 17:17:18;;;;;;;13.68;7.00;;;;;;;;;;10442957;28;20074;-71
2021/09/26 17:22:20;;;;;;;;;;;;;;;;;;10441040;28;20056;-72
2021/09/26 17:27:25;;;;;;;11.03;5.97;;;;;;;;;;10448020;28;19928;-72
2021/09/26 17:32:28;;;;;;;13.65;6.07;;;;;;;;;;10436324;28;20041;-71
2021/09/26 17:37:30;;;;;;;10.77;6.65;;;;;;;;;;10445435;28;20064;-72
2021/09/26 17:42:35;;;;;;;10.60;5.25;;;;;;;;;;10437228;28;20036;-75
2021/09/26 17:47:38;;;;;;;11.30;5.60;;;;;;;;;;10434960;28;20116;-74
2021/09/26 17:52:41;;;;;;;10.10;5.72;;;;;;;;;;10443531;28;20048;-76
2021/09/26 17:57:46;;;;;;;16.58;8.88;;;;;;;;;;10445841;28;20063;-73
2021/09/26 18:02:48;;;;;;;10.80;5.25;;;;;;;;;;10439993;28;20064;-74
2021/09/26 18:07:52;;;;;;;12.98;5.63;;;;;;;;;;10440713;28;20103;-74
2021/09/26 18:12:56;;;;;;;9.40;5.30;;;;;;;;;;10438847;28;20366;-75
2021/09/26 18:18:01;;;;;;;11.15;5.53;;;;;;;;;;10440371;28;20492;-74
2021/09/26 18:23:04;;;;;;;13.93;6.20;;;;;;;;;;10438589;28;20051;-76
2021/09/26 18:28:07;;;;;;;;;;;;;;;;;;10450557;28;20060;-75
2021/09/26 18:33:11;;;;;;;10.30;5.37;;;;;;;;;;10442295;28;19990;-75
2021/09/26 18:38:15;;;;;;;17.40;7.57;;;;;;;;;;10439481;28;20033;-75
2021/09/26 18:43:18;;;;;;;10.23;5.25;;;;;;;;;;10443933;28;20065;-75
2021/09/26 18:48:24;;;;;;;9.40;5.13;;;;;;;;;;10456599;28;20489;-75
2021/09/26 18:53:27;;;;;;;13.75;5.88;;;;;;;;;;10462070;28;20052;-75
2021/09/26 18:58:30;;;;;;;9.68;5.20;;;;;;;;;;10448345;28;20065;-73
2021/09/26 19:03:33;;;;;;;;;;;;;;;;;;10451670;28;20442;-74
2021/09/26 19:08:38;;;;;;;9.63;5.22;;;;;;;;;;10451481;28;19999;-75
2021/09/26 19:13:41;;;;;;;9.60;5.50;;;;;;;;;;10456970;28;20047;-74
2021/09/26 19:18:45;;;;;;;11.18;5.18;;;;;;;;;;10447592;28;20064;-75
2021/09/26 19:23:47;;;;;;;;;;;;;;;;;;10447626;28;20512;-75
2021/09/26 19:28:52;;;;;;;12.00;5.40;;;;;;;;;;10444124;28;20016;-75
2021/09/26 19:33:57;;;;;;;11.65;5.30;;;;;;;;;;10440014;28;20053;-74
2021/09/26 19:39:00;;;;;;;10.85;5.32;;;;;;;;;;10443136;28;20071;-75
2021/09/26 19:44:05;;;;;;;6.57;3.45;;;;;;;;;;10457138;28;20044;-75
2021/09/26 19:49:08;;;;;;;6.78;4.22;;;;;;;;;;10452447;28;20068;-75
2021/09/26 19:54:11;;;;;;;11.48;4.90;;;;;;;;;;10453615;28;20049;-75
2021/09/26 19:59:18;;;;;;;10.75;3.85;;;;;;;;;;10449969;28;20040;-75
2021/09/26 20:04:21;;;;;;;10.80;5.15;;;;;;;;;;10448768;28;20055;-75
2021/09/26 20:09:24;;;;;;;9.98;5.55;;;;;;;;;;10441390;28;20037;-75
2021/09/26 20:14:29;;;;;;;7.40;3.60;;;;;;;;;;10442958;28;20064;-75
2021/09/26 20:19:31;;;;;;;14.10;5.57;;;;;;;;;;10444731;28;20073;-75
2021/09/26 20:24:34;;;;;;;10.13;4.70;;;;;;;;;;10442194;28;20049;-75
2021/09/26 20:29:39;;;;;;;12.73;5.03;;;;;;;;;;10444958;28;20131;-76
2021/09/26 20:34:42;;;;;;;11.07;4.68;;;;;;;;;;10440620;28;20040;-74
2021/09/26 20:39:44;;;;;;;6.18;2.92;;;;;;;;;;10439385;28;20091;-75
2021/09/26 20:44:49;;;;;;;8.27;3.58;;;;;;;;;;10443404;28;20593;-75
2021/09/26 20:49:51;;;;;;;10.10;4.18;;;;;;;;;;10441608;28;20048;-75
2021/09/26 20:54:54;;;;;;;4.68;2.33;;;;;;;;;;10439178;28;20059;-76
2021/09/26 20:59:58;;;;;;;6.30;2.97;;;;;;;;;;10441111;28;20179;-75
2021/09/26 21:05:01;;;;;;;7.07;3.38;;;;;;;;;;10439181;28;20045;-75
2021/09/26 21:10:05;;;;;;;7.63;3.65;;;;;;;;;;10439311;28;20061;-75
2021/09/26 21:15:11;;;;;;;8.25;3.55;;;;;;;;;;10435532;28;20123;-76
2021/09/26 21:20:15;;;;;;;12.02;4.10;;;;;;;;;;10452458;28;20029;-76
2021/09/26 21:25:18;;;;;;;11.77;4.60;;;;;;;;;;10437448;28;20041;-75
2021/09/26 21:30:24;;;;;;;8.20;3.40;;;;;;;;;;10438170;28;20045;-77
2021/09/26 21:35:28;;;;;;;7.57;3.15;;;;;;;;;;10438518;28;20779;-75
2021/09/26 21:40:32;;;;;;;8.77;2.92;;;;;;;;;;10437795;28;20382;-74
2021/09/26 21:45:37;;;;;;;5.10;2.72;;;;;;;;;;10439655;28;20098;-74
2021/09/26 21:50:40;;;;;;;8.63;4.05;;;;;;;;;;10430757;28;20464;-76
2021/09/26 21:55:43;;;;;;;;;;;;;;;;;;10433250;28;20064;-77
2021/09/26 22:00:48;;;;;;;8.68;4.07;;;;;;;;;;10441063;28;19968;-75
2021/09/26 22:05:53;;;;;;;7.88;3.30;;;;;;;;;;10438292;28;20033;-75
2021/09/26 22:10:57;;;;;;;5.82;2.63;;;;;;;;;;10442146;28;20029;-74
2021/09/26 22:16:01;;;;;;;11.90;4.85;;;;;;;;;;10439234;28;20428;-76
2021/09/26 22:21:25;;;;;;;15.15;6.38;;;;;;;;;;10437595;28;20120;-75
2021/09/26 22:26:49;;;;;;;8.77;3.58;;;;;;;;;;10439958;28;20049;-76
2021/09/26 22:32:14;;;;;;;15.18;5.72;;;;;;;;;;10437511;28;20064;-75
2021/09/26 22:37:36;;;;;;;17.35;6.38;;;;;;;;;;10441153;28;20049;-75
2021/09/26 22:42:39;;;;;;;14.97;5.60;;;;;;;;;;10433765;28;20096;-76
2021/09/26 22:47:43;;;;;;;14.43;5.25;;;;;;;;;;10437506;28;20060;-76
2021/09/26 22:52:47;;;;;;;11.13;4.68;;;;;;;;;;10451902;28;20045;-75
2021/09/26 22:57:49;;;;;;;12.15;5.65;;;;;;;;;;10441137;28;20068;-79
2021/09/26 23:02:57;;;;;;;12.80;5.97;;;;;;;;;;10437058;28;20057;-75
2021/09/26 23:08:00;;;;;;;11.20;4.72;;;;;;;;;;10433963;28;20050;-76
2021/09/26 23:13:03;;;;;;;13.55;5.60;;;;;;;;;;10432012;28;20056;-75
2021/09/26 23:18:08;;;;;;;10.57;4.47;;;;;;;;;;10434261;28;20055;-75
2021/09/26 23:23:10;;;;;;;11.38;5.13;;;;;;;;;;10438498;28;20069;-75
2021/09/26 23:28:13;;;;;;;13.60;5.73;;;;;;;;;;10438665;28;20095;-76
2021/09/26 23:33:19;;;;;;;13.07;5.70;;;;;;;;;;10446751;28;20386;-75
2021/09/26 23:38:22;;;;;;;15.15;6.10;;;;;;;;;;10447221;28;20498;-74
2021/09/26 23:43:26;;;;;;;16.50;6.07;;;;;;;;;;10435008;28;20550;-75
2021/09/26 23:48:31;;;;;;;11.73;5.53;;;;;;;;;;10459550;28;20162;-76
2021/09/26 23:53:34;;;;;;;13.93;5.93;;;;;;;;;;10444923;28;20037;-76
2021/09/26 23:58:37;;;;;;;15.02;6.57;;;;;;;;;;10447437;28;20164;-76
